Time;durP1;ratioP1;P1;durP2;ratioP2;P2;SDS_P1;SDS_P2;PMS_P1;PMS_P2;Temp;Humidity;BMP_temperature;BMP_pressure;BME280_temperature;BME280_humidity;BME280_pressure;Samples;Min_cycle;Max_cycle;Signal;HPM_P1;HPM_P2
2023/08/30 00:00:32;;;;;;;3.60;3.30;;;;;;;12.89;100.00;99958.56;5993604;29;20065;-94
2023/08/30 00:03:34;;;;;;;3.45;2.90;;;;;;;12.88;100.00;99956.91;5985557;29;20061;-95
2023/08/30 00:06:35;;;;;;;3.50;3.20;;;;;;;12.89;100.00;99953.34;5976191;29;20038;-94
2023/08/30 00:09:37;;;;;;;3.20;2.90;;;;;;;12.90;100.00;99954.16;5978489;29;20405;-94
2023/08/30 00:12:39;;;;;;;4.10;2.97;;;;;;;12.85;100.00;99944.22;5990339;29;20050;-94
2023/08/30 00:15:41;;;;;;;3.88;2.80;;;;;;;12.82;100.00;99946.28;5985354;29;20050;-94
2023/08/30 00:18:44;;;;;;;3.33;3.00;;;;;;;12.78;100.00;99945.78;5986505;29;20077;-94
2023/08/30 00:21:46;;;;;;;2.53;2.33;;;;;;;12.77;100.00;99945.91;5984367;29;20046;-94
2023/08/30 00:24:48;;;;;;;3.03;2.72;;;;;;;12.73;100.00;99957.59;5984218;29;20146;-94
2023/08/30 00:27:50;;;;;;;3.22;2.90;;;;;;;12.66;100.00;99952.97;5976467;29;20047;-94
2023/08/30 00:30:58;;;;;;;3.33;2.60;;;;;;;12.63;100.00;99952.47;5987687;29;20061;-94
2023/08/30 00:33:59;;;;;;;2.80;2.60;;;;;;;12.58;100.00;99942.53;5973698;29;20059;-94
2023/08/30 00:37:02;;;;;;;3.72;2.40;;;;;;;12.57;100.00;99946.09;5980269;29;20395;-94
2023/08/30 00:40:04;;;;;;;3.80;2.72;;;;;;;12.53;100.00;99942.16;5981895;29;20286;-94
2023/08/30 00:43:07;;;;;;;3.13;2.42;;;;;;;12.52;100.00;99943.13;5984673;29;20114;-94
2023/08/30 00:46:12;;;;;;;4.40;3.05;;;;;;;12.45;100.00;99940.31;5980356;29;20560;-94
2023/08/30 00:49:14;;;;;;;2.75;2.55;;;;;;;12.41;100.00;99943.34;5976084;29;20057;-94
2023/08/30 00:52:18;;;;;;;3.53;2.50;;;;;;;12.37;100.00;99942.00;5980975;29;20062;-94
2023/08/30 00:55:19;;;;;;;3.63;2.88;;;;;;;12.35;100.00;99947.34;5981101;29;20110;-94
2023/08/30 00:58:21;;;;;;;3.78;2.85;;;;;;;12.34;100.00;99939.69;5983996;29;20294;-94
2023/08/30 01:01:23;;;;;;;4.20;2.70;;;;;;;12.31;100.00;99943.41;5992920;29;20054;-94
2023/08/30 01:04:25;;;;;;;2.63;2.42;;;;;;;12.29;100.00;99945.31;5977652;29;20046;-94
2023/08/30 01:07:27;;;;;;;3.20;2.70;;;;;;;12.25;100.00;99937.03;5963988;29;20425;-94
2023/08/30 01:10:52;;;;;;;3.47;2.40;;;;;;;12.22;100.00;99939.91;5982644;29;20076;-95
2023/08/30 01:13:59;;;;;;;3.03;2.67;;;;;;;12.19;100.00;99939.38;5980123;29;20041;-94
2023/08/30 01:17:02;;;;;;;3.40;2.47;;;;;;;12.18;100.00;99945.53;5977312;29;20053;-95
2023/08/30 01:20:15;;;;;;;2.70;2.40;;;;;;;12.15;100.00;99932.84;5977453;29;20126;-95
2023/08/30 01:23:50;;;;;;;2.60;2.40;;;;;;;12.15;100.00;99933.69;5978621;29;21173;-94
2023/08/30 01:27:11;;;;;;;2.88;2.58;;;;;;;12.17;100.00;99934.31;5868744;30;20082;-93
2023/08/30 01:30:15;;;;;;;4.72;2.65;;;;;;;12.21;100.00;99940.06;5891261;30;20056;-94
2023/08/30 01:33:18;;;;;;;3.25;2.95;;;;;;;12.27;100.00;99926.47;5877997;30;20078;-94
2023/08/30 01:36:20;;;;;;;3.38;3.08;;;;;;;12.31;100.00;99929.63;5871199;30;20171;-94
2023/08/30 01:39:23;;;;;;;3.03;2.83;;;;;;;12.31;100.00;99927.03;5881672;30;20059;-94
2023/08/30 01:42:26;;;;;;;3.13;2.90;;;;;;;12.27;100.00;99922.13;5872621;30;20063;-94
2023/08/30 01:45:29;;;;;;;4.30;3.00;;;;;;;12.25;100.00;99913.66;5880721;30;20063;-94
2023/08/30 01:48:33;;;;;;;3.70;2.95;;;;;;;12.24;100.00;99917.22;5873761;30;20064;-94
2023/08/30 01:51:37;;;;;;;3.42;3.05;;;;;;;12.23;100.00;99918.19;5888548;30;20119;-94
2023/08/30 01:54:42;;;;;;;3.83;2.95;;;;;;;12.23;100.00;99920.78;5858192;30;20048;-94
2023/08/30 01:57:44;;;;;;;3.53;3.22;;;;;;;12.22;100.00;99911.38;5887231;30;20297;-94
2023/08/30 02:00:45;;;;;;;4.18;3.42;;;;;;;12.21;100.00;99911.50;5871070;30;20055;-93
2023/08/30 02:03:47;;;;;;;3.75;3.15;;;;;;;12.23;100.00;99907.81;5942022;29;20054;-94
2023/08/30 02:07:03;;;;;;;5.25;3.63;;;;;;;12.31;100.00;99907.06;5979804;29;20414;-93
2023/08/30 02:10:14;;;;;;;4.05;3.10;;;;;;;12.34;100.00;99911.16;5980346;29;20363;-94
2023/08/30 02:13:21;;;;;;;4.30;3.00;;;;;;;12.36;100.00;99907.44;5980094;29;20378;-94
2023/08/30 02:16:26;;;;;;;7.65;2.85;;;;;;;12.35;100.00;99907.59;5979972;29;20050;-95
2023/08/30 02:19:28;;;;;;;2.85;2.53;;;;;;;12.34;100.00;99908.56;5961744;29;20125;-94
2023/08/30 02:22:31;;;;;;;2.70;2.50;;;;;;;12.33;100.00;99899.16;5974532;29;20490;-94
2023/08/30 02:25:32;;;;;;;2.92;2.50;;;;;;;12.27;100.00;99906.56;5967901;29;20072;-93
2023/08/30 02:28:34;;;;;;;3.45;2.90;;;;;;;12.27;100.00;99903.97;5984655;29;20077;-94
2023/08/30 02:31:36;;;;;;;3.30;3.00;;;;;;;12.33;100.00;99907.75;5972744;29;20052;-94
2023/08/30 02:34:38;;;;;;;3.40;3.05;;;;;;;12.32;100.00;99900.09;5980885;29;20550;-94
2023/08/30 02:37:41;;;;;;;4.28;2.90;;;;;;;12.36;100.00;99894.47;5989589;29;20527;-94
2023/08/30 02:40:43;;;;;;;4.30;3.20;;;;;;;12.37;100.00;99896.09;5979594;29;20055;-94
2023/08/30 02:43:45;;;;;;;7.90;3.63;;;;;;;12.36;100.00;99894.47;5978955;29;20095;-94
2023/08/30 02:46:47;;;;;;;5.60;3.80;;;;;;;12.37;100.00;99898.72;5981136;29;20788;-94
2023/08/30 02:49:49;;;;;;;4.60;3.75;;;;;;;12.40;100.00;99895.00;5981656;29;20650;-94
2023/08/30 02:52:51;;;;;;;4.60;3.92;;;;;;;12.41;100.00;99891.44;5971254;29;20141;-94
2023/08/30 02:55:55;;;;;;;5.63;3.60;;;;;;;12.45;100.00;99893.56;5977181;29;20073;-94
2023/08/30 02:58:57;;;;;;;5.10;4.00;;;;;;;12.50;100.00;99893.13;5993744;29;20060;-94
2023/08/30 03:01:58;;;;;;;4.15;3.75;;;;;;;12.55;100.00;99887.50;5988650;29;20505;-94
2023/08/30 03:05:01;;;;;;;4.57;3.58;;;;;;;12.57;100.00;99890.75;5962370;29;20576;-94
2023/08/30 03:08:03;;;;;;;4.75;4.25;;;;;;;12.47;100.00;99888.22;5986710;29;20135;-94
2023/08/30 03:11:10;;;;;;;4.00;3.63;;;;;;;12.35;100.00;99887.66;5986710;29;20579;-95
2023/08/30 03:14:16;;;;;;;4.57;3.40;;;;;;;12.33;100.00;99893.97;5982521;29;20429;-94
2023/08/30 03:17:18;;;;;;;3.90;3.50;;;;;;;12.29;100.00;99889.03;5974135;29;20047;-94
2023/08/30 03:20:20;;;;;;;3.83;3.53;;;;;;;12.33;100.00;99883.56;5988539;29;20058;-94
2023/08/30 03:23:23;;;;;;;5.07;3.95;;;;;;;12.33;100.00;99874.00;5980774;29;20062;-94
2023/08/30 03:26:24;;;;;;;5.90;3.38;;;;;;;12.34;100.00;99885.19;5987681;29;20198;-94
2023/08/30 03:29:29;;;;;;;4.07;3.70;;;;;;;12.35;100.00;99890.25;5973161;29;20192;-95
2023/08/30 03:32:32;;;;;;;3.83;3.50;;;;;;;12.35;100.00;99892.03;5979295;29;20053;-95
2023/08/30 03:35:35;;;;;;;11.48;3.90;;;;;;;12.38;100.00;99897.72;5979871;29;20051;-94
2023/08/30 03:38:37;;;;;;;3.95;3.40;;;;;;;12.43;100.00;99895.50;5978002;29;20124;-94
2023/08/30 03:41:40;;;;;;;3.63;3.33;;;;;;;12.42;100.00;99893.03;5989336;29;20122;-94
2023/08/30 03:44:41;;;;;;;5.10;3.67;;;;;;;12.39;100.00;99883.78;5978139;29;20051;-94
2023/08/30 03:47:43;;;;;;;3.85;3.55;;;;;;;12.28;100.00;99884.00;5971872;29;20050;-95
2023/08/30 03:50:45;;;;;;;3.60;3.30;;;;;;;12.26;100.00;99870.38;5977340;29;20049;-94
2023/08/30 03:53:47;;;;;;;5.55;3.40;;;;;;;12.25;100.00;99869.56;5980578;29;20049;-94
2023/08/30 03:56:48;;;;;;;4.05;3.42;;;;;;;12.22;100.00;99867.25;5980891;29;20054;-94
2023/08/30 03:59:51;;;;;;;3.67;3.30;;;;;;;12.21;100.00;99873.41;5972553;29;20410;-95
2023/08/30 04:02:52;;;;;;;4.93;3.65;;;;;;;12.24;100.00;99869.69;5968220;29;20042;-94
2023/08/30 04:05:58;;;;;;;8.35;4.00;;;;;;;12.29;100.00;99870.06;5970670;29;20406;-94
2023/08/30 04:09:00;;;;;;;4.57;4.00;;;;;;;12.33;100.00;99866.22;5981186;29;20046;-94
2023/08/30 04:12:04;;;;;;;5.82;4.03;;;;;;;12.36;100.00;99865.09;5973999;29;20046;-94
2023/08/30 04:15:07;;;;;;;5.00;3.95;;;;;;;12.34;100.00;99864.44;5967070;29;20046;-95
2023/08/30 04:18:08;;;;;;;4.97;4.47;;;;;;;12.33;100.00;99860.22;5984173;29;20035;-95
2023/08/30 04:21:11;;;;;;;4.50;4.10;;;;;;;12.31;100.00;99849.97;5983946;29;20421;-94
2023/08/30 04:24:14;;;;;;;6.10;4.80;;;;;;;12.27;100.00;99849.47;5983358;29;20046;-94
2023/08/30 04:27:17;;;;;;;4.57;3.65;;;;;;;12.31;100.00;99847.38;5983875;29;20165;-94
2023/08/30 04:30:19;;;;;;;4.28;3.88;;;;;;;12.29;100.00;99850.09;5994772;29;20528;-94
2023/08/30 04:33:21;;;;;;;5.03;4.18;;;;;;;12.32;100.00;99851.59;5983642;29;20215;-94
2023/08/30 04:36:22;;;;;;;4.32;3.92;;;;;;;12.35;100.00;99846.13;5983900;29;20164;-94
2023/08/30 04:39:24;;;;;;;6.00;4.13;;;;;;;12.38;100.00;99845.81;5983698;29;20058;-95
2023/08/30 04:42:27;;;;;;;5.38;4.50;;;;;;;12.42;100.00;99848.91;5982922;29;20149;-94
2023/08/30 04:45:29;;;;;;;4.70;4.30;;;;;;;12.46;100.00;99848.47;5982833;29;20081;-94
2023/08/30 04:48:31;;;;;;;6.88;4.70;;;;;;;12.53;100.00;99850.47;5982439;29;20058;-94
2023/08/30 04:51:33;;;;;;;5.13;4.30;;;;;;;12.60;100.00;99844.53;5979043;29;20263;-95
2023/08/30 04:54:35;;;;;;;4.50;3.83;;;;;;;12.67;100.00;99853.34;5977612;29;20050;-94
2023/08/30 04:57:37;;;;;;;4.38;3.97;;;;;;;12.75;100.00;99850.00;5985619;29;20093;-95
2023/08/30 05:00:39;;;;;;;4.40;4.00;;;;;;;12.85;100.00;99857.69;5980988;29;20152;-95
2023/08/30 05:03:42;;;;;;;5.72;4.13;;;;;;;12.92;100.00;99850.94;5960717;29;20050;-95
2023/08/30 05:06:46;;;;;;;4.78;4.13;;;;;;;13.00;100.00;99850.16;5973923;29;20061;-95
2023/08/30 05:09:48;;;;;;;4.88;4.10;;;;;;;13.07;100.00;99851.19;5976367;29;20051;-95
2023/08/30 05:12:51;;;;;;;5.07;4.13;;;;;;;13.13;100.00;99856.56;5973747;29;20516;-94
2023/08/30 05:15:53;;;;;;;6.45;4.28;;;;;;;13.21;100.00;99855.78;5988882;29;20823;-95
2023/08/30 05:18:55;;;;;;;5.45;4.28;;;;;;;13.25;100.00;99853.69;5982839;29;20049;-95
2023/08/30 05:21:57;;;;;;;5.43;4.93;;;;;;;13.30;100.00;99849.69;5981971;29;20053;-95
2023/08/30 05:25:00;;;;;;;4.85;4.30;;;;;;;13.35;100.00;99850.03;5981048;29;20125;-95
2023/08/30 05:28:02;;;;;;;5.30;4.57;;;;;;;13.38;100.00;99837.72;5975338;29;20046;-95
2023/08/30 05:31:05;;;;;;;5.85;4.50;;;;;;;13.41;100.00;99847.78;5976661;29;20074;-95
2023/08/30 05:34:27;;;;;;;4.50;4.10;;;;;;;13.44;100.00;99837.91;5970796;29;20066;-94
2023/08/30 05:37:42;;;;;;;6.85;4.53;;;;;;;13.46;100.00;99835.94;5959008;29;20394;-95
2023/08/30 05:41:02;;;;;;;4.93;4.10;;;;;;;13.52;100.00;99843.13;5965216;29;20059;-95
2023/08/30 05:44:04;;;;;;;4.80;4.40;;;;;;;13.52;100.00;99835.31;5983206;29;20153;-95
2023/08/30 05:47:07;;;;;;;4.80;3.83;;;;;;;13.58;100.00;99839.88;5981094;29;20133;-95
2023/08/30 05:50:09;;;;;;;4.75;4.22;;;;;;;13.68;100.00;99849.34;5980720;29;20058;-95
2023/08/30 05:53:11;;;;;;;6.05;4.60;;;;;;;13.70;100.00;99848.22;5986178;29;20057;-95
2023/08/30 05:56:17;;;;;;;6.38;4.50;;;;;;;13.76;100.00;99844.16;5983556;29;20536;-95
2023/08/30 05:59:20;;;;;;;6.30;4.55;;;;;;;13.80;100.00;99835.06;5986088;29;20058;-95
2023/08/30 06:02:22;;;;;;;5.85;4.65;;;;;;;13.94;100.00;99837.06;5979645;29;20246;-95
2023/08/30 06:05:24;;;;;;;6.63;4.90;;;;;;;14.06;100.00;99834.13;5976444;29;20054;-95
2023/08/30 06:08:26;;;;;;;5.32;4.43;;;;;;;14.20;100.00;99828.31;5987830;29;20070;-95
2023/08/30 06:11:28;;;;;;;5.45;4.38;;;;;;;14.29;100.00;99836.94;5959328;29;20128;-95
2023/08/30 06:14:30;;;;;;;6.85;5.15;;;;;;;14.41;100.00;99836.47;5987738;29;20057;-95
2023/08/30 06:17:32;;;;;;;5.47;4.95;;;;;;;14.53;100.00;99833.50;5982035;29;20191;-95
2023/08/30 06:20:34;;;;;;;6.82;4.55;;;;;;;14.65;100.00;99832.22;5982376;29;20077;-95
2023/08/30 06:23:38;;;;;;;6.40;5.35;;;;;;;14.75;100.00;99832.88;5982560;29;20054;-95
2023/08/30 06:26:41;;;;;;;8.35;5.05;;;;;;;14.84;100.00;99826.66;5977797;29;20399;-95
2023/08/30 06:29:42;;;;;;;7.05;5.30;;;;;;;14.89;100.00;99827.97;5986274;29;20556;-95
2023/08/30 06:32:44;;;;;;;6.30;5.20;;;;;;;14.93;100.00;99824.88;5982102;29;20085;-95
2023/08/30 06:35:53;;;;;;;6.43;4.68;;;;;;;15.04;100.00;99821.91;5964818;29;20050;-95
2023/08/30 06:38:55;;;;;;;7.95;5.55;;;;;;;15.15;100.00;99820.72;5972054;29;20133;-95
2023/08/30 06:41:57;;;;;;;6.45;5.45;;;;;;;15.34;100.00;99826.53;5974656;29;20748;-95
2023/08/30 06:45:04;;;;;;;8.23;6.40;;;;;;;15.47;100.00;99811.13;5981031;29;20069;-95
2023/08/30 06:48:07;;;;;;;7.00;5.60;;;;;;;15.60;100.00;99811.41;5976642;29;20046;-95
2023/08/30 06:51:10;;;;;;;6.53;5.30;;;;;;;15.66;100.00;99809.91;5986828;29;20162;-95
2023/08/30 06:54:12;;;;;;;8.05;6.32;;;;;;;15.66;100.00;99810.72;5982887;29;20054;-95
2023/08/30 06:57:14;;;;;;;6.68;6.05;;;;;;;15.73;100.00;99810.06;5975951;29;20047;-95
2023/08/30 07:00:17;;;;;;;7.68;5.80;;;;;;;15.83;100.00;99808.06;5971717;29;20054;-95
2023/08/30 07:03:19;;;;;;;7.90;6.15;;;;;;;15.92;100.00;99799.16;5980095;29;20057;-95
2023/08/30 07:06:21;;;;;;;8.65;6.47;;;;;;;16.01;100.00;99797.31;5973099;29;20758;-95
2023/08/30 07:09:28;;;;;;;9.68;7.70;;;;;;;16.08;100.00;99799.06;5978185;29;20551;-95
2023/08/30 07:12:30;;;;;;;10.20;7.70;;;;;;;16.19;100.00;99794.41;5983795;29;20057;-95
2023/08/30 07:15:33;;;;;;;14.73;8.13;;;;;;;16.33;100.00;99791.03;5980785;29;20042;-95
2023/08/30 07:18:35;;;;;;;8.82;6.97;;;;;;;16.46;100.00;99788.59;5969343;29;20046;-95
2023/08/30 07:21:38;;;;;;;7.63;6.57;;;;;;;16.58;100.00;99789.81;5979406;29;20129;-95
2023/08/30 07:24:40;;;;;;;9.93;7.40;;;;;;;16.70;100.00;99782.34;5977477;29;20421;-95
2023/08/30 07:27:42;;;;;;;9.98;7.13;;;;;;;16.72;100.00;99788.22;5971624;29;20127;-95
2023/08/30 07:30:44;;;;;;;11.40;7.75;;;;;;;16.68;100.00;99791.34;5989162;29;20490;-94
2023/08/30 07:33:46;;;;;;;9.50;6.88;;;;;;;16.60;100.00;99792.25;5979405;29;20086;-95
2023/08/30 07:36:48;;;;;;;10.13;7.43;;;;;;;16.57;100.00;99782.97;5981337;29;20047;-95
2023/08/30 07:39:51;;;;;;;8.32;6.25;;;;;;;16.60;100.00;99783.59;5974256;29;20145;-95
2023/08/30 07:42:53;;;;;;;9.75;7.30;;;;;;;16.61;100.00;99786.00;5980120;29;20139;-94
2023/08/30 07:46:00;;;;;;;9.60;7.22;;;;;;;16.63;100.00;99785.84;5980237;29;20050;-94
2023/08/30 07:49:02;;;;;;;8.25;6.60;;;;;;;16.65;100.00;99782.06;5977340;29;20046;-94
2023/08/30 07:52:05;;;;;;;7.40;6.25;;;;;;;16.66;100.00;99780.25;5979395;29;20042;-95
2023/08/30 07:55:07;;;;;;;9.65;6.88;;;;;;;16.71;100.00;99780.53;5978136;29;20542;-94
2023/08/30 07:58:10;;;;;;;11.73;7.07;;;;;;;16.78;100.00;99774.44;5973503;29;20039;-93
2023/08/30 08:01:12;;;;;;;9.93;7.45;;;;;;;16.86;100.00;99783.19;5983436;29;20054;-94
2023/08/30 08:04:14;;;;;;;9.98;7.20;;;;;;;16.93;100.00;99773.63;5977105;29;20084;-94
2023/08/30 08:07:15;;;;;;;10.90;6.97;;;;;;;17.04;100.00;99775.78;5981678;29;20053;-94
2023/08/30 08:10:18;;;;;;;11.25;7.70;;;;;;;17.08;100.00;99776.22;5983935;29;20046;-94
2023/08/30 08:13:20;;;;;;;9.00;7.18;;;;;;;17.16;100.00;99773.50;5984005;29;20149;-94
2023/08/30 08:16:22;;;;;;;10.57;7.38;;;;;;;17.30;100.00;99777.13;5986654;29;20077;-94
2023/08/30 08:19:23;;;;;;;10.75;8.10;;;;;;;17.45;100.00;99775.28;5974313;29;20047;-94
2023/08/30 08:22:28;;;;;;;12.55;8.95;;;;;;;17.64;100.00;99777.28;5979619;29;20086;-94
2023/08/30 08:25:30;;;;;;;12.65;9.35;;;;;;;17.76;100.00;99771.56;5979444;29;20038;-94
2023/08/30 08:28:31;;;;;;;11.80;8.70;;;;;;;17.89;100.00;99771.72;5982965;29;20079;-94
2023/08/30 08:31:33;;;;;;;13.60;9.32;;;;;;;18.08;100.00;99765.84;5991256;29;20055;-94
2023/08/30 08:34:35;;;;;;;15.93;9.35;;;;;;;18.20;100.00;99766.13;5974349;29;20512;-93
2023/08/30 08:37:37;;;;;;;11.82;8.75;;;;;;;18.36;100.00;99764.22;5972938;29;20150;-94
2023/08/30 08:40:39;;;;;;;11.75;8.95;;;;;;;18.63;100.00;99758.19;5962142;29;20614;-94
2023/08/30 08:43:44;;;;;;;11.88;9.00;;;;;;;18.80;100.00;99757.91;5973732;29;20054;-94
2023/08/30 08:46:49;;;;;;;13.40;9.80;;;;;;;18.84;100.00;99753.91;5981476;29;20057;-94
2023/08/30 08:49:51;;;;;;;11.20;8.55;;;;;;;18.90;100.00;99758.34;5986662;29;20498;-94
2023/08/30 08:52:53;;;;;;;12.27;8.73;;;;;;;19.07;100.00;99749.16;5979563;29;20073;-94
2023/08/30 08:56:10;;;;;;;11.60;9.63;;;;;;;19.28;100.00;99748.22;5979945;29;20047;-94
2023/08/30 08:59:15;;;;;;;13.45;9.55;;;;;;;19.38;100.00;99750.47;5968793;29;20051;-94
2023/08/30 09:02:17;;;;;;;13.02;9.52;;;;;;;19.47;100.00;99757.16;5974805;29;20120;-94
2023/08/30 09:05:20;;;;;;;12.73;9.88;;;;;;;19.57;100.00;99751.53;5987498;29;20047;-94
2023/08/30 09:08:23;;;;;;;13.27;10.38;;;;;;;19.63;100.00;99753.38;5982306;29;20046;-94
2023/08/30 09:11:25;;;;;;;12.88;10.27;;;;;;;19.68;100.00;99750.19;5990640;29;20046;-95
2023/08/30 09:14:59;;;;;;;12.57;10.38;;;;;;;19.68;100.00;99753.59;5972944;29;20454;-95
2023/08/30 09:18:01;;;;;;;10.15;9.10;;;;;;;19.74;100.00;99757.25;5960562;29;20498;-94
2023/08/30 09:21:07;;;;;;;12.63;10.13;;;;;;;19.85;100.00;99758.44;5970940;29;20054;-94
2023/08/30 09:24:09;;;;;;;14.55;11.32;;;;;;;20.01;100.00;99755.44;5960649;29;20633;-94
2023/08/30 09:27:11;;;;;;;13.45;11.15;;;;;;;20.15;100.00;99759.69;5971403;29;20038;-95
2023/08/30 09:30:13;;;;;;;20.67;12.02;;;;;;;20.30;100.00;99762.13;5969825;29;20055;-94
2023/08/30 09:33:14;;;;;;;17.00;12.18;;;;;;;20.43;100.00;99759.47;5967389;29;20402;-94
2023/08/30 09:36:16;;;;;;;20.85;11.50;;;;;;;20.46;100.00;99760.88;5972717;29;20061;-94
2023/08/30 09:39:19;;;;;;;13.90;10.82;;;;;;;20.43;100.00;99759.47;5977463;29;20041;-94
2023/08/30 09:42:22;;;;;;;12.57;10.50;;;;;;;20.43;100.00;99751.56;5977711;29;20057;-94
2023/08/30 09:45:24;;;;;;;14.70;10.18;;;;;;;20.59;100.00;99760.06;5972540;29;20059;-95
2023/08/30 09:48:29;;;;;;;13.40;10.20;;;;;;;20.67;100.00;99749.34;5959636;29;20122;-94
2023/08/30 09:51:34;;;;;;;14.13;10.38;;;;;;;20.60;100.00;99754.63;5959560;29;20156;-94
2023/08/30 09:54:41;;;;;;;13.95;11.23;;;;;;;20.57;100.00;99744.53;5969701;29;20038;-94
2023/08/30 09:57:44;;;;;;;13.73;10.75;;;;;;;20.47;100.00;99741.47;5979875;29;20763;-94
2023/08/30 10:00:47;;;;;;;12.50;10.25;;;;;;;20.35;100.00;99746.53;5964930;29;20165;-94
2023/08/30 10:03:49;;;;;;;14.43;11.00;;;;;;;20.35;100.00;99746.53;5971402;29;20122;-94
2023/08/30 10:06:53;;;;;;;13.82;9.95;;;;;;;20.33;100.00;99748.56;5964292;29;20046;-94
2023/08/30 10:09:57;;;;;;;13.15;11.25;;;;;;;20.32;100.00;99744.34;5985206;29;20057;-95
2023/08/30 10:13:11;;;;;;;12.95;10.88;;;;;;;20.40;100.00;99741.47;5980571;29;20042;-95
2023/08/30 10:16:22;;;;;;;12.30;9.88;;;;;;;20.59;100.00;99736.41;5989503;29;20061;-95
2023/08/30 10:19:27;;;;;;;10.65;9.50;;;;;;;20.80;100.00;99733.53;5979575;29;20525;-95
2023/08/30 10:22:29;;;;;;;10.82;9.18;;;;;;;21.00;100.00;99727.38;5979804;29;20533;-91
2023/08/30 10:25:33;;;;;;;11.85;8.98;;;;;;;21.05;100.00;99724.94;5978248;29;20498;-92
2023/08/30 10:28:36;;;;;;;10.85;9.35;;;;;;;21.10;100.00;99726.94;5980155;29;20500;-92
2023/08/30 10:31:40;;;;;;;10.15;8.57;;;;;;;21.06;100.00;99729.97;5980732;29;20553;-92
2023/08/30 10:34:50;;;;;;;9.93;7.50;;;;;;;21.08;100.00;99730.56;5979466;29;20058;-92
2023/08/30 10:37:56;;;;;;;;;;;;;;;21.21;100.00;99732.31;5979809;29;20057;-92
2023/08/30 10:41:07;;;;;;;10.85;9.23;;;;;;;21.49;100.00;99725.94;5981140;29;19933;-92
2023/08/30 10:44:14;;;;;;;10.98;9.05;;;;;;;21.74;100.00;99725.97;5970211;29;20039;-92
2023/08/30 10:47:23;;;;;;;13.00;8.95;;;;;;;21.90;100.00;99725.44;5973323;29;20046;-91
2023/08/30 10:50:33;;;;;;;11.57;8.98;;;;;;;22.04;100.00;99718.25;5973388;29;20046;-92
2023/08/30 10:53:36;;;;;;;12.10;9.40;;;;;;;22.27;100.00;99715.00;5978486;29;20046;-92
2023/08/30 10:57:03;;;;;;;9.82;8.25;;;;;;;22.51;100.00;99718.63;5977200;29;20054;-91
2023/08/30 11:00:07;;;;;;;12.00;9.80;;;;;;;22.63;100.00;99716.03;5972281;29;20054;-91
2023/08/30 11:03:10;;;;;;;11.25;8.93;;;;;;;22.75;100.00;99710.84;5971280;29;20486;-91
2023/08/30 11:06:14;;;;;;;11.85;9.43;;;;;;;22.97;100.00;99708.56;5971348;29;20088;-91
2023/08/30 11:09:23;;;;;;;11.43;9.50;;;;;;;22.95;100.00;99710.59;5981807;29;20183;-92
2023/08/30 11:12:25;;;;;;;8.50;7.32;;;;;;;22.86;100.00;99704.84;5976926;29;20061;-92
2023/08/30 11:15:27;;;;;;;9.88;7.38;;;;;;;22.93;100.00;99688.91;5989667;29;20122;-92
2023/08/30 11:18:29;;;;;;;12.95;8.90;;;;;;;23.08;100.00;99685.91;5963386;29;20494;-92
2023/08/30 11:21:34;;;;;;;7.45;6.45;;;;;;;23.36;100.00;99678.19;5957904;29;20475;-92
2023/08/30 11:24:36;;;;;;;7.60;6.43;;;;;;;23.75;100.00;99681.28;5957401;29;20230;-91
2023/08/30 11:27:38;;;;;;;8.23;6.18;;;;;;;23.83;100.00;99678.28;5960681;29;20423;-92
2023/08/30 11:30:40;;;;;;;7.30;6.43;;;;;;;23.65;100.00;99673.06;5980691;29;20045;-91
2023/08/30 11:33:50;;;;;;;8.48;6.50;;;;;;;23.20;100.00;99668.25;5990330;29;20047;-91
2023/08/30 11:36:53;;;;;;;7.43;6.40;;;;;;;22.86;100.00;99653.91;5979561;29;20338;-91
2023/08/30 11:39:56;;;;;;;8.25;5.35;;;;;;;22.92;100.00;99658.25;5976666;29;20054;-90
2023/08/30 11:42:58;;;;;;;5.80;4.82;;;;;;;22.90;100.00;99647.13;5971926;29;20055;-89
2023/08/30 11:46:03;;;;;;;6.97;6.18;;;;;;;22.76;100.00;99649.94;5973149;29;20595;-89
2023/08/30 11:49:05;;;;;;;7.32;5.88;;;;;;;22.64;100.00;99643.81;5978505;29;20053;-89
2023/08/30 11:52:07;;;;;;;10.07;5.75;;;;;;;22.62;100.00;99634.50;5974010;29;20413;-89
2023/08/30 11:55:09;;;;;;;11.27;5.30;;;;;;;22.66;100.00;99635.66;5977014;29;20054;-89
2023/08/30 11:58:12;;;;;;;5.65;3.95;;;;;;;22.76;100.00;99631.47;5982862;29;20042;-89
2023/08/30 12:01:14;;;;;;;5.55;4.97;;;;;;;22.85;100.00;99629.31;5964124;29;20055;-89
2023/08/30 12:04:18;;;;;;;14.70;6.65;;;;;;;22.94;100.00;99617.41;5970233;29;20090;-89
2023/08/30 12:07:26;;;;;;;6.32;5.43;;;;;;;23.16;100.00;99620.38;5982823;29;20526;-89
2023/08/30 12:10:30;;;;;;;8.00;5.15;;;;;;;23.20;100.00;99611.00;5970286;29;20351;-89
2023/08/30 12:13:33;;;;;;;7.05;5.47;;;;;;;23.25;100.00;99607.66;5974787;29;20053;-89
2023/08/30 12:16:35;;;;;;;5.70;5.10;;;;;;;23.25;100.00;99606.84;5979371;29;20054;-89
2023/08/30 12:19:40;;;;;;;4.72;3.70;;;;;;;23.25;100.00;99604.22;5994712;29;20061;-89
2023/08/30 12:22:42;;;;;;;5.65;2.92;;;;;;;23.39;100.00;99600.34;5977421;29;20042;-90
2023/08/30 12:25:43;;;;;;;4.45;2.80;;;;;;;23.48;100.00;99592.88;5976993;29;20622;-89
2023/08/30 12:28:45;;;;;;;5.03;3.47;;;;;;;23.32;100.00;99589.06;5977416;29;20389;-89
2023/08/30 12:31:47;;;;;;;5.75;3.90;;;;;;;23.18;100.00;99596.41;5981244;29;20053;-89
2023/08/30 12:34:49;;;;;;;5.30;3.90;;;;;;;23.75;100.00;99591.44;5973574;29;20555;-89
2023/08/30 12:37:51;;;;;;;5.00;4.22;;;;;;;24.39;100.00;99574.75;5973335;29;20047;-89
2023/08/30 12:40:54;;;;;;;5.05;3.40;;;;;;;24.60;100.00;99578.63;5971037;29;20403;-89
2023/08/30 12:43:56;;;;;;;5.50;3.50;;;;;;;24.27;100.00;99578.25;5984276;29;20048;-89
2023/08/30 12:46:58;;;;;;;3.95;3.63;;;;;;;23.71;100.00;99571.75;5971895;29;20490;-89
2023/08/30 12:50:00;;;;;;;6.07;3.55;;;;;;;23.20;100.00;99574.03;5973990;29;20046;-89
2023/08/30 12:53:08;;;;;;;4.78;3.22;;;;;;;23.10;100.00;99581.69;5973733;29;20489;-89
2023/08/30 12:56:10;;;;;;;5.38;3.60;;;;;;;23.41;100.00;99575.31;5967102;29;20619;-89
2023/08/30 12:59:12;;;;;;;6.25;4.07;;;;;;;23.74;100.00;99573.16;5977818;29;20529;-90
2023/08/30 13:02:14;;;;;;;4.47;4.03;;;;;;;23.80;100.00;99573.03;5972071;29;20142;-89
2023/08/30 13:05:16;;;;;;;7.03;4.90;;;;;;;23.69;100.00;99575.66;5975037;29;20069;-89
2023/08/30 13:08:18;;;;;;;6.78;4.00;;;;;;;23.14;100.00;99574.94;5974371;29;20403;-89
2023/08/30 13:11:20;;;;;;;5.00;3.95;;;;;;;22.64;100.00;99571.78;5978406;29;20050;-89
2023/08/30 13:14:22;;;;;;;4.03;3.60;;;;;;;22.45;100.00;99569.16;5986331;29;20086;-89
2023/08/30 13:17:24;;;;;;;5.65;3.83;;;;;;;22.32;100.00;99564.06;5978952;29;20043;-88
2023/08/30 13:20:26;;;;;;;4.93;3.70;;;;;;;22.10;100.00;99568.94;5979505;29;20544;-89
2023/08/30 13:23:28;;;;;;;5.38;3.63;;;;;;;21.89;100.00;99571.00;5976671;29;20176;-89
2023/08/30 13:26:30;;;;;;;4.82;3.83;;;;;;;21.92;100.00;99564.50;5978780;29;20099;-89
2023/08/30 13:29:31;;;;;;;5.50;4.43;;;;;;;22.20;100.00;99564.00;5971010;29;20054;-89
2023/08/30 13:32:33;;;;;;;5.20;4.15;;;;;;;22.29;100.00;99556.59;5975104;29;20038;-89
2023/08/30 13:35:35;;;;;;;7.13;4.50;;;;;;;22.26;100.00;99549.94;5973970;29;20611;-89
2023/08/30 13:38:37;;;;;;;4.57;3.95;;;;;;;22.16;100.00;99557.53;5975228;29;20536;-89
2023/08/30 13:41:39;;;;;;;5.20;4.60;;;;;;;21.90;100.00;99553.34;5979317;29;20051;-89
2023/08/30 13:44:43;;;;;;;4.97;4.47;;;;;;;21.57;100.00;99559.78;5978180;29;20440;-89
2023/08/30 13:47:46;;;;;;;4.90;4.40;;;;;;;21.17;100.00;99565.34;5972564;29;20050;-89
2023/08/30 13:50:49;;;;;;;5.70;4.88;;;;;;;20.83;100.00;99562.13;5963879;29;20054;-89
2023/08/30 13:53:52;;;;;;;5.85;4.53;;;;;;;20.56;100.00;99556.19;5969252;29;20054;-89
2023/08/30 13:57:01;;;;;;;4.70;4.00;;;;;;;20.33;100.00;99554.06;5966550;29;20067;-89
2023/08/30 14:00:09;;;;;;;6.53;4.80;;;;;;;20.17;100.00;99549.25;5973910;29;20399;-89
2023/08/30 14:03:11;;;;;;;7.25;4.82;;;;;;;20.10;100.00;99546.66;5980779;29;20517;-89
2023/08/30 14:06:15;;;;;;;8.57;4.60;;;;;;;20.19;100.00;99545.41;5968825;29;20376;-89
2023/08/30 14:09:19;;;;;;;4.88;4.40;;;;;;;20.32;100.00;99546.38;5967541;29;20249;-89